createdAt,value
2022-09-26T00:01:44.200Z,11.73
2022-09-26T00:06:46.859Z,11.84
2022-09-26T00:11:49.577Z,11.81
2022-09-26T00:16:51.988Z,11.92
2022-09-26T00:21:54.479Z,12.03
2022-09-26T00:26:56.830Z,12.09
2022-09-26T00:31:59.272Z,12.13
2022-09-26T00:37:01.909Z,12.20
2022-09-26T00:42:04.485Z,12.23
2022-09-26T00:47:08.550Z,12.30
2022-09-26T00:52:13.070Z,12.32
2022-09-26T00:57:41.098Z,12.24
2022-09-26T01:02:43.831Z,12.42
2022-09-26T01:07:46.816Z,12.35
2022-09-26T01:12:49.146Z,12.46
2022-09-26T01:17:51.754Z,12.59
2022-09-26T01:23:31.914Z,12.33
2022-09-26T01:29:04.741Z,12.40
2022-09-26T01:34:21.061Z,12.24
2022-09-26T01:39:43.806Z,12.29
2022-09-26T01:44:52.505Z,12.21
2022-09-26T01:50:04.126Z,12.10
2022-09-26T01:55:17.617Z,12.21
2022-09-26T02:00:20.667Z,12.58
2022-09-26T02:05:33.442Z,12.56
2022-09-26T02:10:39.276Z,12.51
2022-09-26T02:15:48.345Z,12.71
2022-09-26T02:20:57.011Z,12.78
2022-09-26T02:26:00.169Z,12.75
2022-09-26T02:31:04.479Z,12.80
2022-09-26T02:36:08.490Z,13.06
2022-09-26T02:41:30.284Z,13.04
2022-09-26T02:46:53.751Z,13.01
2022-09-26T02:52:14.418Z,13.14
2022-09-26T02:57:55.638Z,13.19
2022-09-26T03:03:19.982Z,13.01
2022-09-26T03:08:26.539Z,12.88
2022-09-26T03:13:34.759Z,12.96
2022-09-26T03:18:43.030Z,12.77
2022-09-26T03:23:45.993Z,12.83
2022-09-26T03:28:49.065Z,12.70
2022-09-26T03:33:52.939Z,12.61
2022-09-26T03:38:55.335Z,12.56
2022-09-26T03:44:12.103Z,12.71
2022-09-26T03:49:35.327Z,12.78
2022-09-26T03:54:37.943Z,12.84
2022-09-26T03:59:40.498Z,12.70
2022-09-26T04:04:43.085Z,12.80
2022-09-26T04:09:46.152Z,12.67
2022-09-26T04:14:48.521Z,12.59
2022-09-26T04:19:51.718Z,12.64
2022-09-26T04:24:54.711Z,12.65
2022-09-26T04:29:57.852Z,12.66
2022-09-26T04:35:11.419Z,12.65
2022-09-26T04:40:13.958Z,12.71
2022-09-26T04:45:26.710Z,12.67
2022-09-26T04:50:29.226Z,12.88
2022-09-26T04:55:49.570Z,12.72
2022-09-26T05:00:52.608Z,12.94
2022-09-26T05:06:10.117Z,13.08
2022-09-26T05:11:13.146Z,13.12
2022-09-26T05:16:16.197Z,13.15
2022-09-26T05:21:20.000Z,13.05
2022-09-26T05:26:33.278Z,13.12
2022-09-26T05:31:38.098Z,13.13
2022-09-26T05:36:42.833Z,13.26
2022-09-26T05:41:45.185Z,13.35
2022-09-26T05:46:47.751Z,13.40
2022-09-26T05:51:50.323Z,13.47
2022-09-26T05:56:53.847Z,13.57
2022-09-26T06:02:18.606Z,13.52
2022-09-26T06:07:37.643Z,13.55
2022-09-26T06:12:48.815Z,13.66
2022-09-26T06:18:04.588Z,13.71
2022-09-26T06:23:07.339Z,13.64
2022-09-26T06:28:13.582Z,13.72
2022-09-26T06:33:16.118Z,14.00
2022-09-26T06:38:47.648Z,14.13
2022-09-26T06:43:53.219Z,14.20
2022-09-26T06:49:22.131Z,14.59
2022-09-26T06:54:45.883Z,14.75
2022-09-26T06:59:49.071Z,14.88
2022-09-26T07:05:06.090Z,15.04
2022-09-26T07:10:12.822Z,15.11
2022-09-26T07:15:21.025Z,15.15
2022-09-26T07:20:24.127Z,15.03
2022-09-26T07:25:49.148Z,14.96
2022-09-26T07:30:51.740Z,15.13
2022-09-26T07:36:10.871Z,15.20
2022-09-26T07:41:14.097Z,15.31
2022-09-26T07:46:35.375Z,15.55
2022-09-26T07:51:39.215Z,15.85
2022-09-26T07:56:46.439Z,16.01
2022-09-26T08:02:24.136Z,16.29
2022-09-26T08:07:26.961Z,16.35
2022-09-26T08:12:39.971Z,16.37
2022-09-26T08:18:08.635Z,16.61
2022-09-26T08:23:11.659Z,16.73
2022-09-26T08:28:14.688Z,16.89
2022-09-26T08:33:19.129Z,17.03
2022-09-26T08:38:23.204Z,17.04
2022-09-26T08:44:11.248Z,17.16
2022-09-26T08:49:31.499Z,17.09
2022-09-26T08:54:43.888Z,17.28
2022-09-26T08:59:47.988Z,17.64
2022-09-26T09:04:57.608Z,17.73
2022-09-26T09:10:04.957Z,18.18
2022-09-26T09:15:29.036Z,18.23
2022-09-26T09:21:39.372Z,18.43
2022-09-26T09:27:54.031Z,18.44
2022-09-26T09:33:02.029Z,18.56
2022-09-26T09:38:19.815Z,18.67
2022-09-26T09:43:47.591Z,18.69
2022-09-26T09:48:55.910Z,18.94
2022-09-26T09:54:04.071Z,19.10
2022-09-26T09:59:51.794Z,19.01
2022-09-26T10:05:16.885Z,19.00
2022-09-26T10:10:22.986Z,18.97
2022-09-26T10:16:06.571Z,19.36
2022-09-26T10:21:34.755Z,19.73
2022-09-26T10:26:39.388Z,19.90
2022-09-26T10:31:43.598Z,20.40
2022-09-26T10:36:53.943Z,20.52
2022-09-26T10:41:58.612Z,20.75
2022-09-26T10:47:09.003Z,20.48
2022-09-26T10:52:20.112Z,21.00
2022-09-26T10:57:28.335Z,21.68
2022-09-26T11:02:32.520Z,21.58
2022-09-26T11:07:39.362Z,21.51
2022-09-26T11:13:17.150Z,21.59
2022-09-26T11:18:27.308Z,21.13
2022-09-26T11:23:35.720Z,21.04
2022-09-26T11:28:40.932Z,20.31
2022-09-26T11:34:04.855Z,20.67
2022-09-26T11:39:41.037Z,20.63
2022-09-26T11:44:59.022Z,20.96
2022-09-26T11:50:39.812Z,20.80
2022-09-26T11:55:56.215Z,20.58
2022-09-26T12:01:19.969Z,20.99
2022-09-26T12:06:35.175Z,21.02
2022-09-26T12:11:45.943Z,20.96
2022-09-26T12:17:19.717Z,21.12
2022-09-26T12:22:43.194Z,20.22
2022-09-26T12:28:09.791Z,20.34
2022-09-26T12:33:24.301Z,20.37
2022-09-26T12:38:56.661Z,20.15
2022-09-26T12:44:09.022Z,20.52
2022-09-26T12:49:21.470Z,20.84
2022-09-26T12:54:39.113Z,20.84
2022-09-26T12:59:41.417Z,20.88
2022-09-26T13:04:51.691Z,20.75
2022-09-26T13:10:12.051Z,20.29
2022-09-26T13:15:30.521Z,20.31
2022-09-26T13:20:50.063Z,20.28
2022-09-26T13:26:04.699Z,20.19
2022-09-26T13:31:19.556Z,20.36
2022-09-26T13:36:23.017Z,19.60
2022-09-26T13:41:43.543Z,19.61
2022-09-26T13:47:27.152Z,19.42
2022-09-26T13:53:06.909Z,19.15
2022-09-26T13:58:26.614Z,19.10
2022-09-26T14:03:29.210Z,19.24
2022-09-26T14:08:55.257Z,19.10
2022-09-26T14:14:19.231Z,19.08
2022-09-26T14:19:39.407Z,19.26
2022-09-26T14:24:45.427Z,19.26
2022-09-26T14:29:53.060Z,19.41
2022-09-26T14:34:55.228Z,19.26
2022-09-26T14:40:00.538Z,19.22
2022-09-26T14:45:09.031Z,19.11
2022-09-26T14:50:20.621Z,19.11
2022-09-26T14:55:23.090Z,19.02
2022-09-26T15:00:41.990Z,18.91
2022-09-26T15:05:45.175Z,18.80
2022-09-26T15:10:48.464Z,18.70
2022-09-26T15:15:50.824Z,18.48
2022-09-26T15:21:04.167Z,18.29
2022-09-26T15:26:07.109Z,18.41
2022-09-26T15:31:39.371Z,18.45
2022-09-26T15:36:42.621Z,18.60
2022-09-26T15:42:04.337Z,18.44
2022-09-26T15:47:30.122Z,18.45
2022-09-26T15:52:35.727Z,18.11
2022-09-26T15:57:38.236Z,17.71
2022-09-26T16:02:40.746Z,17.78
2022-09-26T16:07:48.392Z,17.64
2022-09-26T16:12:50.565Z,17.22
2022-09-26T16:17:54.767Z,16.97
2022-09-26T16:23:04.081Z,17.13
2022-09-26T16:28:10.491Z,17.10
2022-09-26T16:33:28.218Z,17.13
2022-09-26T16:38:34.428Z,16.98
2022-09-26T16:43:38.558Z,16.58
2022-09-26T16:48:51.405Z,16.65
2022-09-26T16:54:08.973Z,17.04
2022-09-26T16:59:26.822Z,16.84
2022-09-26T17:04:31.289Z,16.76
2022-09-26T17:09:35.216Z,16.52
2022-09-26T17:14:40.630Z,16.32
2022-09-26T17:19:44.852Z,16.31
2022-09-26T17:24:51.317Z,16.42
2022-09-26T17:29:55.843Z,16.25
2022-09-26T17:35:00.017Z,16.71
2022-09-26T17:40:04.062Z,16.33
2022-09-26T17:45:07.081Z,16.16
2022-09-26T17:50:16.917Z,16.42
2022-09-26T17:55:21.691Z,16.34
2022-09-26T18:00:24.135Z,16.10
2022-09-26T18:05:31.227Z,16.05
2022-09-26T18:10:35.011Z,16.06
2022-09-26T18:15:37.635Z,16.03
2022-09-26T18:20:40.563Z,15.97
2022-09-26T18:25:47.199Z,15.88
2022-09-26T18:30:57.859Z,15.85
2022-09-26T18:36:00.855Z,15.90
2022-09-26T18:41:07.048Z,15.90
2022-09-26T18:46:17.828Z,16.01
2022-09-26T18:51:20.642Z,16.01
2022-09-26T18:56:41.847Z,16.01
2022-09-26T19:01:44.437Z,15.99
2022-09-26T19:06:49.858Z,15.94
2022-09-26T19:11:52.274Z,15.77
2022-09-26T19:16:55.824Z,15.53
2022-09-26T19:22:01.006Z,15.55
2022-09-26T19:27:11.356Z,15.44
2022-09-26T19:32:20.127Z,15.25
2022-09-26T19:37:22.542Z,15.52
2022-09-26T19:42:26.393Z,15.57
2022-09-26T19:47:29.710Z,15.51
2022-09-26T19:52:32.173Z,15.56
2022-09-26T19:57:34.740Z,15.81
2022-09-26T20:02:37.212Z,15.90
2022-09-26T20:07:39.603Z,16.09
2022-09-26T20:12:43.174Z,15.68
2022-09-26T20:17:46.442Z,15.30
2022-09-26T20:22:51.120Z,15.24
2022-09-26T20:27:53.660Z,15.27
2022-09-26T20:32:55.965Z,15.16
2022-09-26T20:38:05.149Z,15.07
2022-09-26T20:43:11.861Z,14.92
2022-09-26T20:48:23.523Z,14.86
2022-09-26T20:53:26.370Z,14.73
2022-09-26T20:58:28.753Z,15.11
2022-09-26T21:03:31.755Z,14.99
2022-09-26T21:08:34.082Z,14.72
2022-09-26T21:13:36.432Z,14.45
2022-09-26T21:18:39.031Z,14.36
2022-09-26T21:23:43.116Z,14.55
2022-09-26T21:28:45.615Z,14.96
2022-09-26T21:33:48.182Z,15.18
2022-09-26T21:38:51.896Z,15.09
2022-09-26T21:44:06.173Z,15.18
2022-09-26T21:49:08.619Z,14.96
2022-09-26T21:54:21.805Z,15.00
2022-09-26T21:59:24.874Z,14.78
2022-09-26T22:04:27.406Z,14.82
2022-09-26T22:09:30.476Z,14.68
2022-09-26T22:14:33.160Z,14.56
2022-09-26T22:19:36.076Z,14.37
2022-09-26T22:24:38.511Z,14.35
2022-09-26T22:29:42.025Z,14.34
2022-09-26T22:34:44.383Z,14.53
2022-09-26T22:39:46.759Z,14.53
2022-09-26T22:44:49.153Z,14.68
2022-09-26T22:49:52.102Z,14.71
2022-09-26T22:54:54.633Z,14.66
2022-09-26T22:59:57.300Z,14.48
2022-09-26T23:04:59.697Z,14.51
2022-09-26T23:10:02.213Z,14.52
2022-09-26T23:15:05.441Z,14.59
2022-09-26T23:20:08.343Z,14.54
2022-09-26T23:25:10.882Z,14.45
2022-09-26T23:30:13.490Z,14.47
2022-09-26T23:35:16.117Z,14.39
2022-09-26T23:40:18.529Z,14.29
2022-09-26T23:45:20.888Z,14.22
2022-09-26T23:50:23.318Z,14.30
2022-09-26T23:55:25.705Z,14.18
